Time;durP1;ratioP1;P1;durP2;ratioP2;P2;SDS_P1;SDS_P2;PMS_P1;PMS_P2;Temp;Humidity;BMP_temperature;BMP_pressure;BME280_temperature;BME280_humidity;BME280_pressure;Samples;Min_cycle;Max_cycle;Signal;HPM_P1;HPM_P2
2021/04/19 00:01:23;;;;;;;32.50;21.23;;;12.50;85.10;;;;;;8213644;28;20221;-74
2021/04/19 00:05:24;;;;;;;30.07;19.20;;;12.40;86.20;;;;;;8222152;28;20477;-74
2021/04/19 00:09:25;;;;;;;31.30;19.73;;;12.40;87.10;;;;;;8214626;28;20811;-74
2021/04/19 00:13:26;;;;;;;29.93;19.90;;;12.40;88.20;;;;;;8219395;28;20486;-74
2021/04/19 00:17:29;;;;;;;40.17;19.80;;;12.30;88.90;;;;;;8218486;28;20481;-74
2021/04/19 00:21:32;;;;;;;29.17;20.03;;;12.30;89.80;;;;;;8218399;28;20248;-74
2021/04/19 00:25:32;;;;;;;31.10;19.00;;;12.20;90.00;;;;;;8226446;28;20559;-74
2021/04/19 00:29:35;;;;;;;32.30;21.10;;;12.20;90.00;;;;;;8224806;28;20543;-73
2021/04/19 00:33:36;;;;;;;36.77;22.63;;;12.20;90.40;;;;;;8231524;28;20206;-73
2021/04/19 00:37:37;;;;;;;37.20;22.43;;;12.10;90.80;;;;;;8222283;28;20493;-73
2021/04/19 00:41:38;;;;;;;32.60;21.90;;;12.00;91.20;;;;;;8231632;28;20237;-73
2021/04/19 00:45:42;;;;;;;36.23;21.30;;;11.90;91.40;;;;;;8226686;28;20602;-73
2021/04/19 00:49:46;;;;;;;39.23;22.37;;;11.80;91.60;;;;;;8227469;28;20540;-73
2021/04/19 00:53:47;;;;;;;28.57;21.00;;;11.80;91.90;;;;;;8235791;28;20518;-73
2021/04/19 00:57:49;;;;;;;45.07;24.57;;;11.70;92.20;;;;;;8212120;28;20526;-73
2021/04/19 01:01:53;;;;;;;40.87;22.33;;;11.70;92.30;;;;;;8226182;28;20500;-73
2021/04/19 01:05:54;;;;;;;41.13;23.30;;;11.60;92.50;;;;;;8230330;28;20476;-74
2021/04/19 01:09:55;;;;;;;38.60;23.17;;;11.60;92.60;;;;;;8228117;28;20452;-74
2021/04/19 01:13:55;;;;;;;33.60;21.20;;;11.60;92.80;;;;;;8222128;28;20277;-74
2021/04/19 01:18:00;;;;;;;38.07;21.57;;;11.60;93.10;;;;;;8230689;28;20232;-74
2021/04/19 01:22:04;;;;;;;35.20;21.30;;;11.50;93.40;;;;;;8223596;28;20601;-74
2021/04/19 01:26:06;;;;;;;38.97;22.70;;;11.40;93.60;;;;;;8242388;28;20472;-74
2021/04/19 01:30:08;;;;;;;46.60;24.03;;;11.40;93.70;;;;;;8223405;28;20465;-74
2021/04/19 01:34:21;;;;;;;36.13;23.73;;;11.40;93.80;;;;;;8219626;28;20462;-73
2021/04/19 01:38:26;;;;;;;34.27;23.20;;;11.30;93.90;;;;;;8225867;28;20476;-73
2021/04/19 01:42:38;;;;;;;37.43;21.40;;;11.30;94.00;;;;;;8224106;28;20589;-74
2021/04/19 01:46:39;;;;;;;37.50;21.77;;;11.30;94.00;;;;;;8228138;28;20445;-74
2021/04/19 01:50:40;;;;;;;51.97;24.90;;;11.30;94.00;;;;;;8219426;28;20453;-74
2021/04/19 01:54:41;;;;;;;48.80;26.33;;;11.30;94.00;;;;;;8214477;28;20447;-73
2021/04/19 01:58:41;;;;;;;40.37;24.50;;;11.30;93.90;;;;;;8226205;28;20613;-73
2021/04/19 02:02:52;;;;;;;45.60;23.03;;;11.30;93.80;;;;;;8217834;28;20193;-74
2021/04/19 02:07:24;;;;;;;38.37;23.57;;;11.30;93.70;;;;;;8228490;28;20214;-72
2021/04/19 02:11:51;;;;;;;45.20;23.27;;;11.30;93.70;;;;;;8215054;28;20449;-73
2021/04/19 02:16:06;;;;;;;43.20;24.23;;;11.20;93.70;;;;;;8224321;28;20452;-73
2021/04/19 02:20:45;;;;;;;48.20;26.47;;;11.20;93.80;;;;;;8229227;28;20507;-73
2021/04/19 02:24:48;;;;;;;42.40;23.77;;;11.10;93.90;;;;;;8207083;28;20938;-73
2021/04/19 02:29:02;;;;;;;35.77;23.73;;;11.00;93.90;;;;;;8229680;28;20445;-73
2021/04/19 02:33:08;;;;;;;45.50;25.20;;;10.90;94.10;;;;;;8218930;28;20575;-74
2021/04/19 02:37:10;;;;;;;46.90;28.30;;;10.90;94.10;;;;;;8221245;28;20461;-73
2021/04/19 02:41:16;;;;;;;42.07;24.17;;;10.80;94.20;;;;;;8241771;28;21042;-74
2021/04/19 02:45:21;;;;;;;45.60;25.67;;;10.70;94.30;;;;;;8222146;28;20441;-75
2021/04/19 02:49:29;;;;;;;51.37;26.77;;;10.70;94.30;;;;;;8220198;28;20449;-73
2021/04/19 02:53:41;;;;;;;58.30;30.17;;;10.60;94.40;;;;;;8221552;28;20456;-73
2021/04/19 02:57:49;;;;;;;44.63;27.47;;;10.60;94.60;;;;;;8222108;28;20456;-74
2021/04/19 03:01:55;;;;;;;42.07;26.53;;;10.50;94.60;;;;;;8217455;28;20473;-74
2021/04/19 03:05:57;;;;;;;52.07;30.33;;;10.40;94.70;;;;;;8216127;28;20463;-74
2021/04/19 03:10:02;;;;;;;47.83;28.60;;;10.30;94.70;;;;;;8220258;28;20448;-73
2021/04/19 03:14:05;;;;;;;45.87;28.13;;;10.30;94.70;;;;;;8221524;28;20562;-73
2021/04/19 03:18:09;;;;;;;53.30;31.00;;;10.20;94.80;;;;;;8220045;28;20462;-73
2021/04/19 03:22:15;;;;;;;51.67;30.50;;;10.10;94.90;;;;;;8225845;28;20484;-73
2021/04/19 03:26:18;;;;;;;51.80;30.67;;;10.00;95.10;;;;;;8226664;28;20444;-73
2021/04/19 03:30:20;;;;;;;58.57;34.37;;;10.00;95.30;;;;;;8219282;28;20941;-73
2021/04/19 03:34:23;;;;;;;54.97;33.87;;;10.10;95.50;;;;;;8223941;28;20527;-73
2021/04/19 03:38:24;;;;;;;50.27;29.67;;;10.20;95.50;;;;;;8227504;28;20459;-73
2021/04/19 03:42:26;;;;;;;65.87;33.27;;;10.20;95.40;;;;;;8227138;28;20484;-73
2021/04/19 03:46:30;;;;;;;51.13;30.07;;;10.20;95.30;;;;;;8223246;28;20460;-73
2021/04/19 03:50:34;;;;;;;48.57;29.50;;;10.30;95.40;;;;;;8211061;28;20462;-73
2021/04/19 03:54:40;;;;;;;57.73;30.20;;;10.30;95.40;;;;;;8224127;28;20538;-74
2021/04/19 03:58:43;;;;;;;48.73;29.77;;;10.20;95.30;;;;;;8226063;28;20453;-74
2021/04/19 04:02:50;;;;;;;50.83;30.00;;;10.30;95.20;;;;;;8226554;28;20810;-74
2021/04/19 04:06:51;;;;;;;50.10;31.17;;;10.30;95.20;;;;;;8226385;28;20526;-74
2021/04/19 04:10:52;;;;;;;53.20;31.87;;;10.30;95.30;;;;;;8229824;28;20798;-74
2021/04/19 04:14:55;;;;;;;58.10;30.80;;;10.30;95.30;;;;;;8224675;28;20443;-73
2021/04/19 04:18:55;;;;;;;54.13;30.60;;;10.40;95.30;;;;;;8227898;28;20720;-73
2021/04/19 04:22:56;;;;;;;50.50;30.73;;;10.40;95.20;;;;;;8232632;28;20499;-74
2021/04/19 04:26:57;;;;;;;53.53;30.80;;;10.40;95.10;;;;;;8227681;28;20224;-74
2021/04/19 04:30:58;;;;;;;51.07;33.10;;;10.40;95.10;;;;;;8223775;28;20582;-73
2021/04/19 04:35:02;;;;;;;62.83;33.60;;;10.40;95.20;;;;;;8225972;28;20205;-73
2021/04/19 04:39:07;;;;;;;61.97;35.93;;;10.30;95.20;;;;;;8228328;28;20284;-74
2021/04/19 04:43:13;;;;;;;63.20;35.37;;;10.30;95.30;;;;;;8198110;28;20453;-75
2021/04/19 04:47:25;;;;;;;59.77;36.67;;;10.40;95.30;;;;;;8232305;28;20441;-74
2021/04/19 04:51:28;;;;;;;61.37;37.57;;;10.40;95.30;;;;;;8229405;28;20485;-74
2021/04/19 04:55:32;;;;;;;67.93;37.30;;;10.40;95.30;;;;;;8238582;28;20456;-73
2021/04/19 04:59:43;;;;;;;65.40;37.70;;;10.40;95.20;;;;;;8222118;28;20504;-74
2021/04/19 05:03:45;;;;;;;66.93;38.50;;;10.40;95.10;;;;;;8233169;28;20809;-74
2021/04/19 05:07:48;;;;;;;65.30;40.83;;;10.50;95.10;;;;;;8224527;28;20453;-72
2021/04/19 05:11:49;;;;;;;83.47;43.93;;;10.50;95.10;;;;;;8224622;28;20577;-73
2021/04/19 05:15:50;;;;;;;80.10;42.43;;;10.50;95.00;;;;;;8228336;28;20459;-72
2021/04/19 05:19:59;;;;;;;68.60;42.10;;;10.60;94.90;;;;;;8223168;28;20224;-73
2021/04/19 05:24:00;;;;;;;72.07;38.97;;;10.60;94.90;;;;;;8220819;28;20464;-73
2021/04/19 05:28:02;;;;;;;78.60;43.13;;;10.50;95.00;;;;;;8222622;28;20512;-77
2021/04/19 05:32:04;;;;;;;83.80;46.23;;;10.50;95.00;;;;;;8226026;28;20448;-74
2021/04/19 05:36:13;;;;;;;77.17;45.47;;;10.50;95.20;;;;;;8225149;28;20575;-73
2021/04/19 05:40:15;;;;;;;88.30;50.07;;;10.40;95.30;;;;;;8226391;28;20470;-73
2021/04/19 05:44:16;;;;;;;95.93;52.80;;;10.40;95.60;;;;;;8215193;28;20705;-73
2021/04/19 05:48:16;;;;;;;94.73;54.57;;;10.40;95.70;;;;;;8216682;28;20471;-75
2021/04/19 05:52:17;;;;;;;90.87;48.73;;;10.30;95.90;;;;;;8224953;28;20455;-73
2021/04/19 05:56:37;;;;;;;87.43;50.83;;;10.30;95.90;;;;;;8222043;28;20233;-74
2021/04/19 06:00:44;;;;;;;89.37;53.43;;;10.30;96.00;;;;;;8225508;28;21062;-74
2021/04/19 06:04:56;;;;;;;97.13;53.77;;;10.20;96.10;;;;;;8229174;28;20542;-75
2021/04/19 06:09:10;;;;;;;99.30;57.87;;;10.20;96.10;;;;;;8231771;28;20436;-73
2021/04/19 06:13:17;;;;;;;100.67;57.87;;;10.30;96.20;;;;;;8221738;28;20453;-75
2021/04/19 06:17:21;;;;;;;121.90;60.10;;;10.20;96.30;;;;;;8204815;28;20451;-72
2021/04/19 06:21:22;;;;;;;101.57;56.53;;;10.20;96.30;;;;;;8217204;28;21019;-73
2021/04/19 06:25:24;;;;;;;109.17;60.27;;;10.30;96.40;;;;;;8219134;28;20464;-72
2021/04/19 06:29:28;;;;;;;104.47;57.17;;;10.30;96.40;;;;;;8227828;28;20478;-74
2021/04/19 06:33:30;;;;;;;106.33;57.87;;;10.30;96.40;;;;;;8225899;28;20457;-73
2021/04/19 06:37:32;;;;;;;109.87;64.03;;;10.30;96.50;;;;;;8218837;28;20490;-74
2021/04/19 06:41:33;;;;;;;124.50;66.27;;;10.30;96.60;;;;;;8222262;28;20528;-73
2021/04/19 06:45:36;;;;;;;107.23;61.03;;;10.30;96.70;;;;;;8220148;28;20650;-73
2021/04/19 06:49:42;;;;;;;126.00;64.37;;;10.30;96.80;;;;;;8220769;28;20463;-74
2021/04/19 06:53:43;;;;;;;134.47;71.33;;;10.30;96.70;;;;;;8225447;28;20604;-74
2021/04/19 06:58:00;;;;;;;121.70;65.87;;;10.20;96.80;;;;;;8225082;28;20527;-75
2021/04/19 07:02:08;;;;;;;120.67;70.73;;;10.20;96.90;;;;;;8225292;28;20225;-73
2021/04/19 07:06:13;;;;;;;112.80;64.30;;;10.20;97.00;;;;;;8230744;28;20516;-72
2021/04/19 07:10:15;;;;;;;132.30;74.13;;;10.30;97.20;;;;;;8220482;28;20448;-73
2021/04/19 07:14:17;;;;;;;125.33;66.83;;;10.40;97.30;;;;;;8218190;28;20461;-72
2021/04/19 07:18:20;;;;;;;117.83;67.57;;;10.40;97.20;;;;;;8227341;28;20456;-73
2021/04/19 07:22:20;;;;;;;109.97;65.07;;;10.50;97.10;;;;;;8221295;28;21100;-73
2021/04/19 07:26:21;;;;;;;107.70;59.20;;;10.60;97.20;;;;;;8216595;28;20480;-73
2021/04/19 07:30:24;;;;;;;101.10;58.60;;;10.70;97.30;;;;;;8228418;28;20261;-73
2021/04/19 07:34:27;;;;;;;94.90;53.10;;;10.80;97.10;;;;;;8224825;28;20221;-73
2021/04/19 07:38:36;;;;;;;102.00;63.40;;;10.80;97.00;;;;;;8224485;28;20961;-74
2021/04/19 07:42:42;;;;;;;106.80;60.07;;;10.80;96.90;;;;;;8223610;28;21149;-73
2021/04/19 07:46:44;;;;;;;105.37;56.30;;;10.80;96.70;;;;;;8232871;28;20452;-73
2021/04/19 07:50:44;;;;;;;101.23;59.10;;;10.80;96.80;;;;;;8233517;28;21219;-73
2021/04/19 07:55:03;;;;;;;100.50;56.70;;;10.80;96.80;;;;;;8226930;28;20978;-73
2021/04/19 07:59:29;;;;;;;97.53;58.93;;;10.80;96.70;;;;;;8229457;28;20213;-73
2021/04/19 08:03:38;;;;;;;113.03;63.77;;;10.80;96.80;;;;;;8225783;28;20472;-74
2021/04/19 08:07:39;;;;;;;96.40;55.90;;;10.80;96.80;;;;;;8228625;28;20441;-74
2021/04/19 08:11:44;;;;;;;92.60;59.40;;;10.90;96.90;;;;;;8226586;28;20464;-74
2021/04/19 08:15:46;;;;;;;91.97;58.40;;;11.00;96.80;;;;;;8221409;28;20750;-74
2021/04/19 08:19:52;;;;;;;91.07;54.20;;;11.20;96.80;;;;;;8234521;28;21097;-74
2021/04/19 08:23:53;;;;;;;92.17;52.23;;;11.30;96.60;;;;;;8239354;28;20484;-74
2021/04/19 08:28:10;;;;;;;85.70;52.10;;;11.40;96.40;;;;;;8227991;28;20441;-74
2021/04/19 08:32:13;;;;;;;93.80;53.70;;;11.50;96.30;;;;;;8233464;28;20469;-74
2021/04/19 08:36:16;;;;;;;91.37;53.40;;;11.50;96.00;;;;;;8231292;28;21385;-73
2021/04/19 08:40:19;;;;;;;90.00;51.93;;;11.50;96.00;;;;;;8225070;28;20472;-74
2021/04/19 08:44:22;;;;;;;97.47;54.57;;;11.40;96.00;;;;;;8223133;28;20453;-74
2021/04/19 08:48:23;;;;;;;103.47;60.97;;;11.40;95.90;;;;;;8213688;28;20449;-75
2021/04/19 08:52:27;;;;;;;88.80;54.00;;;11.30;95.90;;;;;;8230249;28;20460;-74
2021/04/19 08:56:28;;;;;;;100.53;56.37;;;11.30;95.90;;;;;;8234042;28;20467;-76
2021/04/19 09:00:29;;;;;;;105.77;60.67;;;11.20;95.90;;;;;;8227885;28;20504;-75
2021/04/19 09:04:29;;;;;;;104.83;57.07;;;11.20;96.10;;;;;;8228436;28;20201;-76
2021/04/19 09:08:35;;;;;;;103.63;58.40;;;11.20;96.00;;;;;;8233219;28;20194;-75
2021/04/19 09:12:41;;;;;;;103.83;57.57;;;11.20;96.00;;;;;;8227347;28;20449;-75
2021/04/19 09:16:45;;;;;;;111.33;63.60;;;11.30;96.10;;;;;;8224364;28;20477;-77
2021/04/19 09:20:54;;;;;;;93.17;57.07;;;11.30;96.10;;;;;;8235936;28;20661;-75
2021/04/19 09:25:09;;;;;;;102.37;59.63;;;11.40;96.00;;;;;;8236615;28;20550;-75
2021/04/19 09:29:26;;;;;;;91.10;55.50;;;11.70;96.20;;;;;;8241500;28;20941;-78
2021/04/19 09:33:33;;;;;;;81.17;51.93;;;12.00;95.80;;;;;;8234239;28;20441;-75
2021/04/19 09:37:34;;;;;;;85.57;51.23;;;12.50;95.50;;;;;;8244574;28;20442;-75
2021/04/19 09:41:48;;;;;;;78.20;49.97;;;12.90;94.90;;;;;;8227968;28;20569;-74
2021/04/19 09:45:54;;;;;;;85.60;53.70;;;13.10;94.00;;;;;;8228786;28;20192;-75
2021/04/19 09:49:57;;;;;;;88.10;55.00;;;13.10;93.90;;;;;;8223550;28;20503;-74
2021/04/19 09:54:10;;;;;;;85.63;51.63;;;13.30;93.80;;;;;;8230787;28;20508;-75
2021/04/19 09:58:14;;;;;;;79.03;48.67;;;13.40;93.40;;;;;;8229487;28;20825;-75
2021/04/19 10:02:22;;;;;;;86.10;52.43;;;13.70;93.30;;;;;;8245939;28;20477;-76
2021/04/19 10:06:46;;;;;;;84.77;51.60;;;14.00;92.90;;;;;;8209323;28;20461;-76
2021/04/19 10:10:56;;;;;;;79.20;48.00;;;14.60;92.70;;;;;;8223728;28;20453;-75
2021/04/19 10:14:59;;;;;;;74.30;47.03;;;15.00;91.70;;;;;;8224147;28;20856;-74
2021/04/19 10:19:01;;;;;;;76.20;48.80;;;15.10;91.00;;;;;;8230920;28;20455;-74
2021/04/19 10:23:12;;;;;;;75.00;45.50;;;14.90;90.80;;;;;;8184879;28;20464;-74
2021/04/19 10:27:26;;;;;;;83.37;47.90;;;14.60;90.70;;;;;;8224808;28;20458;-74
2021/04/19 10:31:27;;;;;;;75.70;48.57;;;14.50;91.10;;;;;;8219150;28;20461;-73
2021/04/19 10:35:29;;;;;;;80.73;45.63;;;14.60;91.10;;;;;;8220611;28;20463;-74
2021/04/19 10:39:35;;;;;;;82.27;46.90;;;14.80;90.70;;;;;;8221014;28;20225;-74
2021/04/19 10:43:37;;;;;;;67.50;40.90;;;15.20;91.10;;;;;;8223917;28;20453;-74
2021/04/19 10:47:37;;;;;;;63.10;41.70;;;15.80;90.10;;;;;;8227358;28;20454;-74
2021/04/19 10:51:38;;;;;;;64.90;40.53;;;16.20;88.80;;;;;;8229199;28;20508;-74
2021/04/19 10:55:40;;;;;;;66.70;39.77;;;16.30;86.20;;;;;;8209346;28;20574;-73
2021/04/19 10:59:48;;;;;;;64.93;42.57;;;16.00;86.80;;;;;;8206912;28;20927;-73
2021/04/19 11:03:52;;;;;;;57.67;39.50;;;15.70;86.50;;;;;;8224021;28;20453;-74
2021/04/19 11:07:55;;;;;;;64.57;40.73;;;15.70;87.40;;;;;;8218784;28;20841;-74
2021/04/19 11:11:56;;;;;;;60.53;42.13;;;15.90;87.50;;;;;;8207438;28;20457;-74
2021/04/19 11:15:59;;;;;;;64.63;41.70;;;16.00;87.10;;;;;;8222989;28;20458;-75
2021/04/19 11:20:00;;;;;;;58.13;35.60;;;15.90;86.30;;;;;;8224107;28;20565;-76
2021/04/19 11:24:10;;;;;;;57.90;34.53;;;16.10;87.50;;;;;;8223705;28;20462;-73
2021/04/19 11:28:29;;;;;;;58.63;36.30;;;16.30;84.60;;;;;;8224956;28;20538;-75
2021/04/19 11:32:33;;;;;;;49.27;32.30;;;16.50;85.40;;;;;;8221900;28;20480;-75
2021/04/19 11:36:43;;;;;;;54.67;34.83;;;16.90;84.60;;;;;;8222447;28;20455;-74
2021/04/19 11:40:46;;;;;;;47.90;33.33;;;17.30;82.80;;;;;;8221000;28;20528;-74
2021/04/19 11:44:53;;;;;;;47.07;32.10;;;17.50;81.50;;;;;;8227977;28;20453;-75
2021/04/19 11:48:54;;;;;;;44.63;32.77;;;17.60;81.70;;;;;;8232001;28;20455;-75
2021/04/19 11:52:55;;;;;;;44.60;29.17;;;17.90;81.10;;;;;;8236869;28;20488;-75
2021/04/19 11:57:04;;;;;;;46.60;29.47;;;17.90;79.90;;;;;;8227507;28;20466;-79
2021/04/19 12:01:05;;;;;;;42.37;30.87;;;17.80;78.50;;;;;;8214086;28;20273;-74
2021/04/19 12:05:14;;;;;;;43.53;28.10;;;17.80;78.90;;;;;;8222846;28;20456;-75
2021/04/19 12:09:17;;;;;;;42.30;27.63;;;18.00;80.30;;;;;;8228653;28;20962;-75
2021/04/19 12:13:29;;;;;;;44.90;28.47;;;18.80;79.00;;;;;;8211302;28;20564;-75
2021/04/19 12:17:29;;;;;;;40.70;24.90;;;20.00;77.50;;;;;;8221820;28;20448;-75
2021/04/19 12:21:30;;;;;;;40.00;26.30;;;20.90;73.40;;;;;;8208166;28;20451;-74
2021/04/19 12:25:33;;;;;;;36.43;26.93;;;21.40;71.50;;;;;;8238644;28;20220;-75
2021/04/19 12:29:37;;;;;;;35.63;25.97;;;21.60;69.90;;;;;;8230553;28;20441;-74
2021/04/19 12:33:42;;;;;;;32.33;24.70;;;21.50;68.40;;;;;;8210045;28;20424;-75
2021/04/19 12:37:43;;;;;;;40.60;30.03;;;20.90;68.50;;;;;;8228590;28;20408;-75
2021/04/19 12:41:50;;;;;;;49.80;31.10;;;20.20;68.90;;;;;;8224507;28;20800;-75
2021/04/19 12:45:52;;;;;;;40.87;29.20;;;19.50;71.20;;;;;;8225953;28;20457;-75
2021/04/19 12:49:55;;;;;;;43.00;29.60;;;19.20;72.50;;;;;;8220957;28;20451;-73
2021/04/19 12:53:58;;;;;;;43.00;28.20;;;18.90;73.00;;;;;;8231233;28;20528;-75
2021/04/19 12:58:01;;;;;;;42.40;27.03;;;18.70;74.20;;;;;;8228332;28;20480;-75
2021/04/19 13:02:03;;;;;;;41.17;29.30;;;18.70;74.90;;;;;;8210249;28;20469;-74
2021/04/19 13:06:08;;;;;;;39.07;29.00;;;18.60;74.10;;;;;;8215068;28;20564;-74
2021/04/19 13:10:15;;;;;;;44.03;30.77;;;18.50;74.30;;;;;;8241573;28;20449;-75
2021/04/19 13:14:20;;;;;;;43.33;29.03;;;18.50;75.40;;;;;;8231997;28;20504;-75
2021/04/19 13:18:21;;;;;;;36.10;27.00;;;18.40;74.70;;;;;;8223892;28;20505;-74
2021/04/19 13:22:25;;;;;;;48.70;29.30;;;18.40;74.90;;;;;;8226154;28;20222;-74
2021/04/19 13:26:27;;;;;;;39.73;26.80;;;18.60;74.30;;;;;;8229335;28;20326;-76
2021/04/19 13:30:28;;;;;;;37.60;27.13;;;18.70;73.70;;;;;;8188460;28;20464;-75
2021/04/19 13:34:30;;;;;;;31.80;24.50;;;18.90;72.70;;;;;;8190722;28;20460;-74
2021/04/19 13:38:32;;;;;;;38.47;26.57;;;19.10;72.90;;;;;;8220670;28;20512;-74
2021/04/19 13:42:40;;;;;;;36.93;26.57;;;19.40;71.40;;;;;;8223588;28;21085;-76
2021/04/19 13:46:43;;;;;;;36.57;26.30;;;19.40;70.60;;;;;;8211591;28;20537;-75
2021/04/19 13:50:48;;;;;;;34.87;24.63;;;19.30;71.90;;;;;;8242140;28;20449;-74
2021/04/19 13:55:01;;;;;;;37.50;26.27;;;19.20;72.10;;;;;;8214393;28;20459;-76
2021/04/19 13:59:14;;;;;;;37.90;24.50;;;19.30;71.80;;;;;;8220957;28;20449;-80
2021/04/19 14:03:16;;;;;;;35.17;24.90;;;19.60;71.80;;;;;;8200981;28;20461;-74
2021/04/19 14:07:17;;;;;;;32.70;23.10;;;19.70;69.90;;;;;;8222359;28;20475;-75
2021/04/19 14:11:20;;;;;;;33.23;21.43;;;19.60;70.60;;;;;;8217929;28;20512;-74
2021/04/19 14:15:27;;;;;;;32.03;22.20;;;19.50;69.10;;;;;;8220727;28;20202;-75
2021/04/19 14:19:30;;;;;;;33.97;21.10;;;19.30;69.30;;;;;;8215204;28;21018;-77
2021/04/19 14:23:34;;;;;;;32.83;22.13;;;19.20;69.00;;;;;;8224051;28;20448;-73
2021/04/19 14:27:45;;;;;;;34.20;21.10;;;19.20;69.90;;;;;;8246632;28;20468;-78
2021/04/19 14:31:46;;;;;;;30.67;21.17;;;19.10;69.70;;;;;;8217013;28;20988;-76
2021/04/19 14:35:47;;;;;;;26.03;19.77;;;19.10;70.50;;;;;;8236542;28;20488;-76
2021/04/19 14:39:49;;;;;;;33.27;22.77;;;19.00;68.80;;;;;;8230774;28;20539;-75
2021/04/19 14:43:51;;;;;;;29.70;22.40;;;18.80;70.20;;;;;;8225504;28;20507;-78
2021/04/19 14:47:52;;;;;;;31.23;22.77;;;18.70;70.70;;;;;;8221603;28;20450;-75
2021/04/19 14:51:57;;;;;;;35.37;23.87;;;18.50;71.00;;;;;;8237449;28;20452;-76
2021/04/19 14:56:03;;;;;;;31.80;22.30;;;18.30;72.20;;;;;;8230178;28;20632;-75
2021/04/19 15:00:08;;;;;;;38.43;23.67;;;18.20;73.10;;;;;;8236618;28;20524;-76
2021/04/19 15:04:12;;;;;;;32.97;23.80;;;18.30;73.10;;;;;;8236677;28;20505;-77
2021/04/19 15:08:16;;;;;;;31.93;20.40;;;18.40;73.10;;;;;;8238181;28;20440;-76
2021/04/19 15:12:23;;;;;;;29.43;21.80;;;18.50;72.40;;;;;;8227467;28;20448;-76
2021/04/19 15:16:30;;;;;;;32.27;20.73;;;18.60;72.00;;;;;;8234265;28;20457;-76
2021/04/19 15:20:35;;;;;;;28.20;20.60;;;18.60;71.40;;;;;;8233295;28;20469;-75
2021/04/19 15:24:36;;;;;;;32.70;22.87;;;18.60;70.70;;;;;;8238319;28;20608;-75
2021/04/19 15:28:38;;;;;;;32.80;20.87;;;18.50;70.60;;;;;;8218205;28;20464;-76
2021/04/19 15:32:39;;;;;;;31.10;19.43;;;18.50;71.30;;;;;;8214287;28;20908;-77
2021/04/19 15:36:46;;;;;;;33.27;20.90;;;18.40;71.10;;;;;;8227253;28;20889;-75
2021/04/19 15:40:55;;;;;;;37.23;23.77;;;18.30;71.00;;;;;;8232684;28;20217;-75
2021/04/19 15:44:57;;;;;;;40.23;24.50;;;18.20;71.90;;;;;;8231336;28;20457;-76
2021/04/19 15:48:57;;;;;;;35.73;22.53;;;18.10;72.40;;;;;;8239543;28;20448;-76
2021/04/19 15:53:03;;;;;;;32.87;22.47;;;17.90;74.20;;;;;;8235184;28;20814;-75
2021/04/19 15:57:05;;;;;;;33.37;22.43;;;17.80;74.20;;;;;;8239860;28;20646;-76
2021/04/19 16:01:07;;;;;;;39.00;24.40;;;17.80;74.60;;;;;;8240884;28;20479;-75
2021/04/19 16:05:08;;;;;;;37.03;24.27;;;17.60;75.70;;;;;;8242592;28;20449;-76
2021/04/19 16:09:11;;;;;;;43.33;24.27;;;17.50;75.60;;;;;;8242667;28;20557;-76
2021/04/19 16:13:12;;;;;;;36.27;23.73;;;17.40;76.00;;;;;;8236973;28;20453;-75
2021/04/19 16:17:12;;;;;;;41.43;25.23;;;17.30;76.80;;;;;;8224628;28;20477;-74
2021/04/19 16:21:14;;;;;;;39.63;24.97;;;17.30;78.10;;;;;;8229503;28;20283;-76
2021/04/19 16:25:25;;;;;;;38.23;22.47;;;17.20;77.90;;;;;;8239578;28;20201;-77
2021/04/19 16:29:27;;;;;;;33.77;22.63;;;17.10;78.30;;;;;;8215327;28;20563;-73
2021/04/19 16:33:28;;;;;;;35.67;24.10;;;17.00;79.40;;;;;;8229080;28;20445;-75
2021/04/19 16:37:35;;;;;;;37.10;23.63;;;16.90;79.30;;;;;;8239656;28;20457;-77
2021/04/19 16:41:53;;;;;;;36.50;23.30;;;16.80;78.70;;;;;;8237987;28;20463;-76
2021/04/19 16:45:57;;;;;;;33.60;23.67;;;16.80;78.50;;;;;;8224635;28;20480;-75
2021/04/19 16:50:02;;;;;;;35.83;22.90;;;16.70;79.20;;;;;;8210174;28;20465;-77
2021/04/19 16:54:12;;;;;;;42.00;23.80;;;16.60;78.90;;;;;;8243052;28;20465;-75
2021/04/19 16:58:20;;;;;;;36.77;24.27;;;16.40;79.10;;;;;;8231945;28;20472;-76
2021/04/19 17:02:22;;;;;;;36.70;23.20;;;16.40;79.20;;;;;;8231314;28;20465;-76
2021/04/19 17:06:24;;;;;;;38.30;25.47;;;16.30;79.00;;;;;;8239591;28;20446;-77
2021/04/19 17:10:32;;;;;;;36.13;23.63;;;16.40;79.90;;;;;;8218818;28;20856;-76
2021/04/19 17:14:34;;;;;;;37.10;22.73;;;16.30;80.70;;;;;;8229263;28;20938;-75
2021/04/19 17:18:35;;;;;;;31.77;22.93;;;16.20;81.00;;;;;;8225326;28;20461;-74
2021/04/19 17:22:43;;;;;;;33.77;21.90;;;16.20;81.40;;;;;;8213251;28;20484;-78
2021/04/19 17:26:44;;;;;;;39.70;23.57;;;16.10;82.00;;;;;;8229605;28;20208;-75
2021/04/19 17:30:46;;;;;;;46.97;27.27;;;16.00;82.80;;;;;;8224305;28;20460;-76
2021/04/19 17:34:49;;;;;;;52.47;30.50;;;15.70;84.70;;;;;;8241207;28;20956;-75
2021/04/19 17:38:51;;;;;;;53.47;29.07;;;15.50;86.70;;;;;;8229519;28;20441;-76
2021/04/19 17:42:53;;;;;;;52.43;32.47;;;15.30;87.90;;;;;;8239743;28;20483;-76
2021/04/19 17:46:59;;;;;;;51.40;30.07;;;15.20;88.50;;;;;;8241453;28;20460;-76
2021/04/19 17:51:03;;;;;;;52.57;28.40;;;15.10;88.90;;;;;;8224278;28;20481;-76
2021/04/19 17:55:08;;;;;;;55.17;30.17;;;15.10;89.00;;;;;;8242297;28;20439;-77
2021/04/19 17:59:09;;;;;;;53.83;32.40;;;15.00;89.30;;;;;;8237270;28;20899;-76
2021/04/19 18:03:17;;;;;;;55.60;29.63;;;14.90;89.50;;;;;;8234293;28;20629;-76
2021/04/19 18:07:20;;;;;;;49.27;28.60;;;14.90;89.90;;;;;;8222999;28;20450;-77
2021/04/19 18:11:22;;;;;;;51.00;30.17;;;14.90;89.90;;;;;;8237490;28;20459;-75
2021/04/19 18:15:26;;;;;;;50.87;31.20;;;14.70;90.00;;;;;;8233977;28;20447;-76
2021/04/19 18:19:28;;;;;;;52.70;31.60;;;14.60;90.30;;;;;;8235975;28;20512;-76
2021/04/19 18:23:31;;;;;;;54.37;30.20;;;14.50;90.50;;;;;;8221184;28;20455;-75
2021/04/19 18:27:34;;;;;;;52.20;31.67;;;14.40;90.70;;;;;;8245051;28;20465;-76
2021/04/19 18:31:38;;;;;;;57.90;33.30;;;14.30;91.00;;;;;;8219256;28;21030;-77
2021/04/19 18:35:42;;;;;;;60.10;33.97;;;14.20;91.20;;;;;;8225518;28;20454;-77
2021/04/19 18:39:54;;;;;;;53.47;33.07;;;14.20;91.40;;;;;;8243134;28;20831;-75
2021/04/19 18:43:57;;;;;;;61.57;32.27;;;14.10;91.60;;;;;;8253343;28;20452;-78
2021/04/19 18:48:04;;;;;;;55.37;34.97;;;14.00;91.70;;;;;;8240338;28;20525;-77
2021/04/19 18:52:11;;;;;;;60.37;35.27;;;13.90;91.80;;;;;;8238398;28;20534;-76
2021/04/19 18:56:19;;;;;;;64.07;36.53;;;13.90;91.90;;;;;;8214795;28;20446;-77
2021/04/19 19:00:21;;;;;;;64.03;36.50;;;13.80;92.00;;;;;;8226575;28;20469;-76
2021/04/19 19:04:26;;;;;;;58.63;36.00;;;13.70;92.10;;;;;;8238723;28;20445;-76
2021/04/19 19:08:29;;;;;;;58.70;34.30;;;13.60;92.20;;;;;;8229941;28;20452;-76
2021/04/19 19:12:33;;;;;;;69.40;35.57;;;13.50;92.30;;;;;;8236496;28;20450;-77
2021/04/19 19:16:34;;;;;;;67.63;36.50;;;13.50;92.40;;;;;;8245515;28;20542;-75
2021/04/19 19:20:40;;;;;;;79.53;38.70;;;13.40;92.50;;;;;;8240556;28;20483;-76
2021/04/19 19:24:41;;;;;;;78.70;41.27;;;13.30;92.60;;;;;;8227963;28;20982;-77
2021/04/19 19:28:47;;;;;;;73.63;40.17;;;13.20;92.80;;;;;;8216598;28;21257;-75
2021/04/19 19:32:53;;;;;;;68.67;37.20;;;13.10;92.90;;;;;;8239068;28;21187;-76
2021/04/19 19:36:54;;;;;;;68.97;36.77;;;13.00;93.10;;;;;;8244296;28;20449;-75
2021/04/19 19:40:56;;;;;;;65.43;39.27;;;12.90;93.20;;;;;;8249728;28;20988;-75
2021/04/19 19:44:57;;;;;;;70.87;39.50;;;12.80;93.30;;;;;;8244033;28;20937;-76
2021/04/19 19:48:58;;;;;;;70.70;40.50;;;12.70;93.50;;;;;;8222455;28;20504;-76
2021/04/19 19:53:01;;;;;;;61.47;35.40;;;12.50;93.60;;;;;;8246559;28;20449;-76
2021/04/19 19:57:05;;;;;;;68.83;36.60;;;12.50;93.60;;;;;;8240013;28;20437;-76
2021/04/19 20:01:16;;;;;;;65.97;37.23;;;12.30;93.80;;;;;;8242822;28;20473;-77
2021/04/19 20:05:20;;;;;;;62.77;39.47;;;12.20;93.90;;;;;;8238813;28;20528;-76
2021/04/19 20:09:21;;;;;;;76.87;39.57;;;12.10;93.90;;;;;;8240530;28;20449;-76
2021/04/19 20:13:26;;;;;;;69.70;39.47;;;11.90;94.20;;;;;;8242201;28;20448;-78
2021/04/19 20:17:27;;;;;;;75.73;42.37;;;11.80;94.30;;;;;;8233932;28;20450;-74
2021/04/19 20:21:31;;;;;;;69.73;36.43;;;11.70;94.50;;;;;;8236220;28;20531;-75
2021/04/19 20:25:32;;;;;;;73.73;43.17;;;11.70;94.70;;;;;;8230917;28;20754;-75
2021/04/19 20:29:33;;;;;;;85.97;46.27;;;11.60;94.70;;;;;;8229159;28;20456;-75
2021/04/19 20:33:36;;;;;;;75.00;41.87;;;11.50;94.70;;;;;;8232313;28;20194;-75
2021/04/19 20:37:37;;;;;;;89.30;45.30;;;11.50;94.80;;;;;;8238007;28;20457;-76